createdAt,value
2022-11-29T00:02:07.708Z,45.40
2022-11-29T00:06:21.951Z,42.08
2022-11-29T00:10:23.401Z,40.35
2022-11-29T00:14:26.590Z,42.28
2022-11-29T00:18:27.974Z,45.47
2022-11-29T00:22:30.132Z,40.92
2022-11-29T00:26:31.631Z,44.08
2022-11-29T00:30:33.082Z,38.67
2022-11-29T00:34:34.572Z,38.17
2022-11-29T00:38:35.971Z,39.55
2022-11-29T00:42:37.365Z,38.75
2022-11-29T00:46:38.782Z,42.03
2022-11-29T00:50:40.264Z,39.38
2022-11-29T00:54:41.980Z,42.88
2022-11-29T00:58:43.710Z,38.17
2022-11-29T01:02:45.183Z,43.97
2022-11-29T01:06:46.623Z,39.38
2022-11-29T01:10:48.094Z,41.03
2022-11-29T01:14:49.532Z,43.38
2022-11-29T01:18:51.009Z,37.75
2022-11-29T01:22:52.671Z,47.70
2022-11-29T01:26:54.084Z,48.00
2022-11-29T01:30:55.816Z,40.70
2022-11-29T01:34:57.267Z,37.17
2022-11-29T01:39:00.592Z,31.95
2022-11-29T01:43:02.029Z,38.05
2022-11-29T01:47:03.520Z,42.30
2022-11-29T01:51:05.081Z,42.40
2022-11-29T01:55:08.986Z,38.15
2022-11-29T01:59:14.468Z,38.78
2022-11-29T02:03:17.552Z,37.30
2022-11-29T02:07:19.113Z,38.20
2022-11-29T02:12:08.407Z,43.47
2022-11-29T02:16:51.100Z,36.85
2022-11-29T02:21:30.725Z,39.05
2022-11-29T02:25:53.642Z,34.47
2022-11-29T02:30:09.271Z,34.65
2022-11-29T02:34:29.461Z,39.47
2022-11-29T02:38:59.592Z,42.17
2022-11-29T02:43:15.986Z,36.47
2022-11-29T02:47:39.088Z,30.88
2022-11-29T02:51:53.953Z,40.92
2022-11-29T02:56:10.770Z,41.40
2022-11-29T03:00:20.040Z,42.67
2022-11-29T03:04:43.851Z,36.38
2022-11-29T03:08:54.065Z,37.17
2022-11-29T03:17:05.748Z,40.95
2022-11-29T03:21:20.289Z,40.58
2022-11-29T03:25:41.989Z,45.67
2022-11-29T03:29:51.203Z,43.10
2022-11-29T03:34:19.712Z,46.85
2022-11-29T03:38:28.259Z,46.88
2022-11-29T03:42:40.408Z,39.70
2022-11-29T03:47:24.603Z,45.30
2022-11-29T03:51:38.163Z,42.25
2022-11-29T03:55:57.002Z,43.95
2022-11-29T04:00:05.465Z,41.75
2022-11-29T04:04:37.787Z,49.70
2022-11-29T04:08:52.661Z,44.13
2022-11-29T04:13:15.307Z,46.75
2022-11-29T04:17:19.784Z,44.25
2022-11-29T04:21:37.586Z,46.38
2022-11-29T04:25:57.660Z,40.42
2022-11-29T04:30:13.675Z,43.13
2022-11-29T04:34:48.879Z,44.67
2022-11-29T04:39:38.469Z,44.70
2022-11-29T04:43:58.487Z,48.55
2022-11-29T04:48:05.847Z,48.70
2022-11-29T04:52:28.767Z,44.53
2022-11-29T04:56:43.216Z,49.70
2022-11-29T05:01:09.574Z,45.05
2022-11-29T05:05:44.184Z,45.75
2022-11-29T05:10:27.540Z,49.38
2022-11-29T05:14:47.779Z,42.40
2022-11-29T05:18:57.364Z,44.80
2022-11-29T05:23:23.656Z,48.75
2022-11-29T05:27:34.302Z,44.97
2022-11-29T05:32:06.723Z,47.75
2022-11-29T05:36:24.538Z,37.90
2022-11-29T05:40:49.342Z,42.72
2022-11-29T05:45:00.892Z,45.95
2022-11-29T05:49:25.542Z,51.92
2022-11-29T05:53:38.750Z,44.83
2022-11-29T05:57:52.254Z,40.97
2022-11-29T06:02:15.264Z,41.53
2022-11-29T06:06:26.000Z,45.33
2022-11-29T06:10:40.084Z,43.95
2022-11-29T06:14:59.745Z,48.63
2022-11-29T06:19:11.218Z,44.58
2022-11-29T06:23:15.595Z,46.13
2022-11-29T06:27:21.784Z,47.03
2022-11-29T06:31:55.782Z,46.55
2022-11-29T06:36:21.002Z,48.83
2022-11-29T06:40:22.739Z,46.63
2022-11-29T06:44:24.552Z,46.13
2022-11-29T06:48:29.642Z,49.65
2022-11-29T06:52:34.184Z,46.20
2022-11-29T06:56:40.798Z,40.42
2022-11-29T07:01:03.523Z,42.22
2022-11-29T07:05:20.292Z,46.22
2022-11-29T07:09:26.828Z,48.38
2022-11-29T07:13:28.577Z,45.05
2022-11-29T07:17:36.040Z,47.88
2022-11-29T07:21:37.473Z,48.35
2022-11-29T07:25:47.949Z,44.22
2022-11-29T07:30:05.162Z,44.63
2022-11-29T07:34:21.119Z,41.35
2022-11-29T07:38:52.202Z,49.00
2022-11-29T07:43:15.619Z,41.00
2022-11-29T07:47:17.062Z,42.42
2022-11-29T07:51:18.527Z,51.03
2022-11-29T07:55:22.639Z,46.63
2022-11-29T07:59:24.104Z,45.55
2022-11-29T08:03:25.565Z,41.72
2022-11-29T08:07:27.711Z,43.67
2022-11-29T08:11:29.306Z,41.63
2022-11-29T08:15:30.969Z,48.90
2022-11-29T08:19:32.418Z,41.40
2022-11-29T08:23:33.840Z,43.90
2022-11-29T08:27:36.833Z,37.15
2022-11-29T08:31:38.572Z,38.83
2022-11-29T08:35:42.097Z,44.38
2022-11-29T08:39:44.050Z,39.40
2022-11-29T08:43:45.556Z,42.13
2022-11-29T08:47:47.141Z,45.88
2022-11-29T08:51:51.905Z,41.60
2022-11-29T08:55:53.392Z,44.95
2022-11-29T08:59:54.812Z,48.40
2022-11-29T09:04:07.643Z,39.55
2022-11-29T09:08:09.203Z,42.15
2022-11-29T09:12:10.646Z,42.63
2022-11-29T09:16:15.507Z,47.03
2022-11-29T09:20:16.967Z,51.28
2022-11-29T09:24:19.599Z,45.65
2022-11-29T09:28:21.055Z,46.17
2022-11-29T09:32:22.636Z,43.53
2022-11-29T09:36:28.405Z,42.72
2022-11-29T09:40:52.844Z,46.08
2022-11-29T09:45:14.518Z,44.97
2022-11-29T09:49:27.804Z,45.30
2022-11-29T09:53:59.401Z,53.50
2022-11-29T09:58:03.818Z,40.58
2022-11-29T10:02:25.352Z,38.47
2022-11-29T10:06:35.069Z,43.13
2022-11-29T10:10:44.840Z,40.10
2022-11-29T10:14:50.062Z,44.08
2022-11-29T10:19:01.291Z,44.83
2022-11-29T10:23:29.395Z,44.20
2022-11-29T10:27:30.886Z,42.25
2022-11-29T10:31:36.880Z,39.85
2022-11-29T10:35:38.336Z,44.65
2022-11-29T10:40:20.327Z,36.42
2022-11-29T10:44:22.097Z,42.42
2022-11-29T10:48:28.627Z,39.75
2022-11-29T10:52:30.036Z,44.65
2022-11-29T10:56:37.552Z,45.47
2022-11-29T11:00:57.688Z,41.22
2022-11-29T11:05:00.375Z,41.03
2022-11-29T11:09:16.745Z,39.28
2022-11-29T11:13:27.192Z,38.95
2022-11-29T11:17:32.885Z,38.17
2022-11-29T11:21:39.037Z,39.10
2022-11-29T11:25:40.728Z,36.47
2022-11-29T11:29:44.491Z,37.75
2022-11-29T11:33:46.405Z,43.47
2022-11-29T11:37:57.473Z,34.67
2022-11-29T11:42:17.751Z,38.08
2022-11-29T11:46:19.429Z,36.63
2022-11-29T11:50:52.303Z,38.63
2022-11-29T11:54:57.874Z,39.00
2022-11-29T11:59:02.089Z,37.08
2022-11-29T12:03:04.865Z,44.42
2022-11-29T12:07:26.302Z,33.70
2022-11-29T12:11:51.287Z,37.35
2022-11-29T12:15:56.696Z,35.95
2022-11-29T12:20:26.662Z,38.22
2022-11-29T12:24:37.923Z,39.07
2022-11-29T12:28:41.052Z,38.17
2022-11-29T12:33:04.046Z,43.30
2022-11-29T12:37:15.213Z,39.10
2022-11-29T12:41:34.661Z,38.20
2022-11-29T12:45:38.786Z,40.77
2022-11-29T12:49:46.210Z,38.28
2022-11-29T12:53:47.570Z,39.53
2022-11-29T12:58:14.061Z,40.78
2022-11-29T13:02:34.544Z,39.30
2022-11-29T13:06:49.434Z,40.72
2022-11-29T13:11:23.560Z,43.40
2022-11-29T13:15:41.759Z,44.10
2022-11-29T13:19:53.319Z,37.80
2022-11-29T13:24:12.716Z,38.45
2022-11-29T13:28:27.858Z,45.37
2022-11-29T13:32:45.998Z,40.72
2022-11-29T13:37:18.882Z,37.95
2022-11-29T13:41:29.009Z,43.90
2022-11-29T13:45:44.401Z,38.20
2022-11-29T13:49:54.937Z,40.00
2022-11-29T13:53:59.502Z,43.08
2022-11-29T13:58:16.809Z,34.42
2022-11-29T14:02:37.179Z,33.00
2022-11-29T14:06:39.089Z,43.73
2022-11-29T14:10:47.884Z,40.97
2022-11-29T14:14:53.931Z,43.28
2022-11-29T14:19:10.235Z,48.63
2022-11-29T14:23:18.557Z,46.55
2022-11-29T14:27:19.910Z,42.38
2022-11-29T14:31:49.187Z,44.65
2022-11-29T14:36:07.990Z,46.03
2022-11-29T14:40:35.690Z,44.45
2022-11-29T14:44:53.669Z,40.63
2022-11-29T14:48:55.110Z,48.25
2022-11-29T14:52:56.758Z,47.05
2022-11-29T14:57:18.175Z,46.92
2022-11-29T15:01:20.736Z,52.03
2022-11-29T15:05:41.631Z,46.42
2022-11-29T15:09:45.482Z,50.40
2022-11-29T15:14:12.395Z,48.65
2022-11-29T15:18:27.215Z,52.95
2022-11-29T15:22:42.669Z,45.10
2022-11-29T15:26:59.115Z,53.25
2022-11-29T15:31:09.762Z,49.67
2022-11-29T15:35:17.972Z,49.35
2022-11-29T15:39:28.876Z,56.38
2022-11-29T15:43:35.938Z,53.90
2022-11-29T15:47:37.376Z,51.58
2022-11-29T15:51:39.580Z,51.95
2022-11-29T15:55:43.059Z,52.38
2022-11-29T15:59:52.132Z,51.80
2022-11-29T16:03:56.641Z,48.43
2022-11-29T16:08:17.305Z,45.45
2022-11-29T16:12:18.891Z,56.88
2022-11-29T16:16:22.578Z,49.33
2022-11-29T16:20:25.537Z,52.67
2022-11-29T16:24:27.215Z,49.55
2022-11-29T16:28:34.930Z,53.92
2022-11-29T16:32:42.711Z,59.22
2022-11-29T16:36:44.281Z,57.63
2022-11-29T16:41:05.322Z,52.13
2022-11-29T16:45:27.109Z,58.13
2022-11-29T16:49:34.952Z,54.70
2022-11-29T16:53:38.805Z,55.97
2022-11-29T16:57:40.558Z,53.05
2022-11-29T17:01:42.069Z,59.50
2022-11-29T17:05:44.934Z,54.83
2022-11-29T17:09:46.568Z,57.78
2022-11-29T17:13:49.031Z,53.85
2022-11-29T17:17:50.487Z,60.08
2022-11-29T17:21:52.860Z,59.90
2022-11-29T17:26:01.094Z,66.80
2022-11-29T17:30:04.526Z,59.00
2022-11-29T17:34:06.111Z,63.42
2022-11-29T17:38:07.529Z,56.28
2022-11-29T17:42:09.116Z,63.42
2022-11-29T17:46:14.235Z,58.70
2022-11-29T17:50:15.864Z,58.63
2022-11-29T17:54:17.305Z,64.50
2022-11-29T17:58:18.739Z,60.30
2022-11-29T18:02:20.329Z,56.35
2022-11-29T18:06:24.442Z,55.92
2022-11-29T18:10:28.154Z,58.22
2022-11-29T18:14:30.950Z,53.80
2022-11-29T18:18:34.000Z,54.45
2022-11-29T18:22:35.483Z,50.63
2022-11-29T18:26:38.234Z,51.75
2022-11-29T18:30:39.828Z,59.15
2022-11-29T18:34:41.318Z,58.97
2022-11-29T18:38:44.250Z,57.25
2022-11-29T18:42:45.773Z,52.85
2022-11-29T18:46:47.789Z,51.15
2022-11-29T18:50:49.298Z,58.67
2022-11-29T18:54:50.782Z,58.97
2022-11-29T18:58:58.195Z,59.35
2022-11-29T19:03:00.180Z,55.00
2022-11-29T19:07:01.665Z,55.13
2022-11-29T19:11:11.250Z,51.75
2022-11-29T19:15:12.769Z,58.33
2022-11-29T19:19:14.269Z,61.75
2022-11-29T19:23:16.054Z,51.42
2022-11-29T19:27:17.526Z,53.67
2022-11-29T19:31:20.948Z,49.40
2022-11-29T19:35:22.438Z,52.53
2022-11-29T19:39:23.902Z,51.17
2022-11-29T19:43:32.213Z,52.55
2022-11-29T19:47:33.704Z,55.45
2022-11-29T19:51:36.183Z,51.80
2022-11-29T19:55:43.894Z,52.97
2022-11-29T19:59:48.399Z,51.15
2022-11-29T20:03:57.184Z,50.55
2022-11-29T20:08:01.745Z,47.65
2022-11-29T20:12:03.616Z,52.55
2022-11-29T20:16:09.496Z,52.63
2022-11-29T20:20:11.985Z,44.85
2022-11-29T20:24:15.519Z,51.15
2022-11-29T20:28:17.019Z,53.72
2022-11-29T20:32:19.198Z,52.53
2022-11-29T20:36:35.907Z,55.53
2022-11-29T20:41:02.916Z,57.55
2022-11-29T20:45:08.291Z,52.97
2022-11-29T20:49:13.887Z,49.95
2022-11-29T20:53:33.246Z,55.13
2022-11-29T20:57:35.028Z,49.50
2022-11-29T21:01:36.727Z,61.03
2022-11-29T21:05:38.333Z,59.08
2022-11-29T21:09:39.907Z,58.53
2022-11-29T21:13:47.406Z,50.90
2022-11-29T21:17:49.058Z,55.65
2022-11-29T21:21:59.725Z,56.00
2022-11-29T21:26:13.567Z,56.03
2022-11-29T21:30:20.811Z,56.45
2022-11-29T21:34:22.438Z,45.90
2022-11-29T21:38:26.725Z,51.47
2022-11-29T21:42:28.165Z,56.47
2022-11-29T21:46:29.809Z,49.80
2022-11-29T21:50:31.277Z,53.35
2022-11-29T21:54:32.985Z,53.53
2022-11-29T21:58:36.450Z,56.42
2022-11-29T22:02:38.070Z,57.15
2022-11-29T22:06:39.714Z,56.88
2022-11-29T22:10:41.457Z,58.15
2022-11-29T22:14:43.024Z,54.47
2022-11-29T22:18:44.477Z,55.17
2022-11-29T22:22:47.615Z,60.53
2022-11-29T22:26:49.744Z,60.50
2022-11-29T22:30:51.206Z,53.95
2022-11-29T22:34:52.630Z,54.22
2022-11-29T22:38:54.195Z,56.00
2022-11-29T22:42:55.637Z,52.33
2022-11-29T22:46:57.144Z,61.45
2022-11-29T22:51:03.385Z,60.00
2022-11-29T22:55:05.477Z,53.83
2022-11-29T22:59:07.457Z,56.67
2022-11-29T23:03:08.909Z,57.35
2022-11-29T23:07:10.380Z,56.25
2022-11-29T23:11:15.052Z,56.03
2022-11-29T23:15:16.665Z,54.70
2022-11-29T23:19:18.329Z,54.35
2022-11-29T23:23:19.757Z,55.80
2022-11-29T23:27:21.243Z,54.70
2022-11-29T23:31:24.208Z,57.85
2022-11-29T23:35:25.741Z,56.60
2022-11-29T23:39:27.213Z,54.83
2022-11-29T23:43:30.684Z,56.88
2022-11-29T23:47:32.176Z,55.53
2022-11-29T23:51:33.702Z,54.05
2022-11-29T23:55:35.147Z,62.28
2022-11-29T23:59:36.583Z,60.17
